sensor_id;sensor_type;location;lat;lon;timestamp;P1;durP1;ratioP1;P2;durP2;ratioP2
55308;SDS011;44028;51.358;19.876;2022-12-18T00:01:46;53.10;;;16.50;;
55308;SDS011;44028;51.358;19.876;2022-12-18T00:04:18;43.17;;;15.73;;
55308;SDS011;44028;51.358;19.876;2022-12-18T00:06:49;48.25;;;17.48;;
55308;SDS011;44028;51.358;19.876;2022-12-18T00:09:19;41.88;;;13.93;;
55308;SDS011;44028;51.358;19.876;2022-12-18T00:11:52;40.95;;;14.95;;
55308;SDS011;44028;51.358;19.876;2022-12-18T00:14:27;49.97;;;17.15;;
55308;SDS011;44028;51.358;19.876;2022-12-18T00:16:58;49.67;;;17.13;;
55308;SDS011;44028;51.358;19.876;2022-12-18T00:22:19;43.05;;;17.08;;
55308;SDS011;44028;51.358;19.876;2022-12-18T00:24:46;46.45;;;16.42;;
55308;SDS011;44028;51.358;19.876;2022-12-18T00:27:16;47.60;;;16.45;;
55308;SDS011;44028;51.358;19.876;2022-12-18T00:29:49;49.78;;;17.00;;
55308;SDS011;44028;51.358;19.876;2022-12-18T00:32:16;55.13;;;17.25;;
55308;SDS011;44028;51.358;19.876;2022-12-18T00:34:43;52.05;;;18.05;;
55308;SDS011;44028;51.358;19.876;2022-12-18T00:37:10;45.72;;;17.58;;
55308;SDS011;44028;51.358;19.876;2022-12-18T00:39:43;49.85;;;16.05;;
55308;SDS011;44028;51.358;19.876;2022-12-18T00:42:10;80.07;;;26.30;;
55308;SDS011;44028;51.358;19.876;2022-12-18T00:44:51;60.70;;;20.15;;
55308;SDS011;44028;51.358;19.876;2022-12-18T00:47:18;62.05;;;19.75;;
55308;SDS011;44028;51.358;19.876;2022-12-18T00:49:44;68.38;;;21.55;;
55308;SDS011;44028;51.358;19.876;2022-12-18T00:52:11;46.75;;;16.52;;
55308;SDS011;44028;51.358;19.876;2022-12-18T00:54:38;43.28;;;17.08;;
55308;SDS011;44028;51.358;19.876;2022-12-18T00:57:04;53.25;;;17.80;;
55308;SDS011;44028;51.358;19.876;2022-12-18T00:59:31;45.20;;;16.38;;
55308;SDS011;44028;51.358;19.876;2022-12-18T01:02:01;44.60;;;16.27;;
55308;SDS011;44028;51.358;19.876;2022-12-18T01:04:31;47.63;;;17.38;;
55308;SDS011;44028;51.358;19.876;2022-12-18T01:06:58;55.00;;;16.00;;
55308;SDS011;44028;51.358;19.876;2022-12-18T01:09:24;43.70;;;13.60;;
55308;SDS011;44028;51.358;19.876;2022-12-18T01:11:55;50.28;;;16.20;;
55308;SDS011;44028;51.358;19.876;2022-12-18T01:14:24;46.00;;;16.80;;
55308;SDS011;44028;51.358;19.876;2022-12-18T01:16:50;42.35;;;16.00;;
55308;SDS011;44028;51.358;19.876;2022-12-18T01:19:17;49.80;;;16.77;;
55308;SDS011;44028;51.358;19.876;2022-12-18T01:21:44;49.90;;;15.75;;
55308;SDS011;44028;51.358;19.876;2022-12-18T01:24:14;48.25;;;16.00;;
55308;SDS011;44028;51.358;19.876;2022-12-18T01:26:41;46.10;;;15.82;;
55308;SDS011;44028;51.358;19.876;2022-12-18T01:29:08;49.10;;;16.55;;
55308;SDS011;44028;51.358;19.876;2022-12-18T01:31:34;34.92;;;14.18;;
55308;SDS011;44028;51.358;19.876;2022-12-18T01:34:02;47.47;;;16.27;;
55308;SDS011;44028;51.358;19.876;2022-12-18T01:36:33;52.90;;;17.92;;
55308;SDS011;44028;51.358;19.876;2022-12-18T01:39:00;49.95;;;17.38;;
55308;SDS011;44028;51.358;19.876;2022-12-18T01:41:28;46.72;;;15.25;;
55308;SDS011;44028;51.358;19.876;2022-12-18T01:46:49;50.50;;;17.13;;
55308;SDS011;44028;51.358;19.876;2022-12-18T01:49:16;45.40;;;14.23;;
55308;SDS011;44028;51.358;19.876;2022-12-18T01:51:42;47.58;;;16.08;;
55308;SDS011;44028;51.358;19.876;2022-12-18T01:54:09;40.67;;;14.20;;
55308;SDS011;44028;51.358;19.876;2022-12-18T01:56:36;38.35;;;14.85;;
55308;SDS011;44028;51.358;19.876;2022-12-18T01:59:04;39.90;;;15.70;;
55308;SDS011;44028;51.358;19.876;2022-12-18T02:01:32;38.45;;;14.48;;
55308;SDS011;44028;51.358;19.876;2022-12-18T02:06:40;47.33;;;15.70;;
55308;SDS011;44028;51.358;19.876;2022-12-18T02:09:11;47.13;;;16.15;;
55308;SDS011;44028;51.358;19.876;2022-12-18T02:16:44;45.65;;;16.83;;
55308;SDS011;44028;51.358;19.876;2022-12-18T02:19:22;43.78;;;14.95;;
55308;SDS011;44028;51.358;19.876;2022-12-18T02:22:26;40.63;;;13.95;;
55308;SDS011;44028;51.358;19.876;2022-12-18T02:27:26;46.92;;;15.80;;
55308;SDS011;44028;51.358;19.876;2022-12-18T02:29:54;52.15;;;15.50;;
55308;SDS011;44028;51.358;19.876;2022-12-18T02:32:25;41.83;;;14.30;;
55308;SDS011;44028;51.358;19.876;2022-12-18T02:34:54;50.63;;;15.57;;
55308;SDS011;44028;51.358;19.876;2022-12-18T02:37:22;40.38;;;15.60;;
55308;SDS011;44028;51.358;19.876;2022-12-18T02:39:49;47.95;;;15.85;;
55308;SDS011;44028;51.358;19.876;2022-12-18T02:42:19;50.72;;;16.65;;
55308;SDS011;44028;51.358;19.876;2022-12-18T02:44:47;47.75;;;16.65;;
55308;SDS011;44028;51.358;19.876;2022-12-18T02:47:15;49.00;;;15.77;;
55308;SDS011;44028;51.358;19.876;2022-12-18T02:52:56;53.78;;;17.08;;
55308;SDS011;44028;51.358;19.876;2022-12-18T02:55:05;46.30;;;16.45;;
55308;SDS011;44028;51.358;19.876;2022-12-18T03:00:03;49.13;;;15.38;;
55308;SDS011;44028;51.358;19.876;2022-12-18T03:07:38;41.85;;;16.02;;
55308;SDS011;44028;51.358;19.876;2022-12-18T03:10:06;43.65;;;14.93;;
55308;SDS011;44028;51.358;19.876;2022-12-18T03:12:37;43.88;;;15.63;;
55308;SDS011;44028;51.358;19.876;2022-12-18T03:15:12;54.33;;;17.95;;
55308;SDS011;44028;51.358;19.876;2022-12-18T03:17:44;43.40;;;14.02;;
55308;SDS011;44028;51.358;19.876;2022-12-18T03:20:14;48.13;;;16.50;;
55308;SDS011;44028;51.358;19.876;2022-12-18T03:22:41;48.28;;;17.00;;
55308;SDS011;44028;51.358;19.876;2022-12-18T03:25:18;56.72;;;16.85;;
55308;SDS011;44028;51.358;19.876;2022-12-18T03:27:48;44.00;;;15.93;;
55308;SDS011;44028;51.358;19.876;2022-12-18T03:30:17;36.58;;;14.35;;
55308;SDS011;44028;51.358;19.876;2022-12-18T03:32:52;46.40;;;16.13;;
55308;SDS011;44028;51.358;19.876;2022-12-18T03:35:26;54.80;;;17.63;;
55308;SDS011;44028;51.358;19.876;2022-12-18T03:37:54;50.30;;;18.05;;
55308;SDS011;44028;51.358;19.876;2022-12-18T03:40:23;47.35;;;15.38;;
55308;SDS011;44028;51.358;19.876;2022-12-18T03:42:56;47.55;;;15.73;;
55308;SDS011;44028;51.358;19.876;2022-12-18T03:45:37;52.47;;;17.80;;
55308;SDS011;44028;51.358;19.876;2022-12-18T03:48:06;46.75;;;15.48;;
55308;SDS011;44028;51.358;19.876;2022-12-18T03:55:34;44.95;;;16.25;;
55308;SDS011;44028;51.358;19.876;2022-12-18T03:58:01;50.50;;;16.95;;
55308;SDS011;44028;51.358;19.876;2022-12-18T04:00:30;49.15;;;15.50;;
55308;SDS011;44028;51.358;19.876;2022-12-18T04:02:58;46.20;;;16.83;;
55308;SDS011;44028;51.358;19.876;2022-12-18T04:05:26;47.67;;;16.73;;
55308;SDS011;44028;51.358;19.876;2022-12-18T04:07:54;53.15;;;18.67;;
55308;SDS011;44028;51.358;19.876;2022-12-18T04:10:21;48.30;;;17.17;;
55308;SDS011;44028;51.358;19.876;2022-12-18T04:12:48;48.40;;;17.70;;
55308;SDS011;44028;51.358;19.876;2022-12-18T04:15:15;44.78;;;15.70;;
55308;SDS011;44028;51.358;19.876;2022-12-18T04:17:45;43.92;;;15.23;;
55308;SDS011;44028;51.358;19.876;2022-12-18T04:20:13;54.67;;;17.40;;
55308;SDS011;44028;51.358;19.876;2022-12-18T04:22:40;48.20;;;16.27;;
55308;SDS011;44028;51.358;19.876;2022-12-18T04:25:06;54.05;;;17.63;;
55308;SDS011;44028;51.358;19.876;2022-12-18T04:27:42;45.78;;;16.48;;
55308;SDS011;44028;51.358;19.876;2022-12-18T04:30:09;49.67;;;15.82;;
55308;SDS011;44028;51.358;19.876;2022-12-18T04:32:36;46.85;;;16.17;;
55308;SDS011;44028;51.358;19.876;2022-12-18T04:35:03;54.60;;;16.88;;
55308;SDS011;44028;51.358;19.876;2022-12-18T04:37:30;51.50;;;16.67;;
55308;SDS011;44028;51.358;19.876;2022-12-18T04:39:57;48.38;;;16.45;;
55308;SDS011;44028;51.358;19.876;2022-12-18T04:42:23;46.55;;;16.63;;
55308;SDS011;44028;51.358;19.876;2022-12-18T04:44:50;47.35;;;16.67;;
55308;SDS011;44028;51.358;19.876;2022-12-18T04:47:17;47.13;;;16.25;;
55308;SDS011;44028;51.358;19.876;2022-12-18T04:49:44;51.22;;;17.23;;
55308;SDS011;44028;51.358;19.876;2022-12-18T04:52:10;47.80;;;16.80;;
55308;SDS011;44028;51.358;19.876;2022-12-18T04:54:37;49.40;;;16.52;;
55308;SDS011;44028;51.358;19.876;2022-12-18T04:57:04;45.22;;;15.45;;
55308;SDS011;44028;51.358;19.876;2022-12-18T04:59:31;41.95;;;15.52;;
55308;SDS011;44028;51.358;19.876;2022-12-18T05:01:58;46.45;;;16.52;;
55308;SDS011;44028;51.358;19.876;2022-12-18T05:04:24;47.63;;;15.27;;
55308;SDS011;44028;51.358;19.876;2022-12-18T05:06:51;44.72;;;16.20;;
55308;SDS011;44028;51.358;19.876;2022-12-18T05:09:18;48.78;;;15.52;;
55308;SDS011;44028;51.358;19.876;2022-12-18T05:11:53;48.03;;;17.00;;
55308;SDS011;44028;51.358;19.876;2022-12-18T05:14:23;46.53;;;16.42;;
55308;SDS011;44028;51.358;19.876;2022-12-18T05:16:49;46.38;;;15.88;;
55308;SDS011;44028;51.358;19.876;2022-12-18T05:19:16;47.95;;;15.75;;
55308;SDS011;44028;51.358;19.876;2022-12-18T05:21:43;50.22;;;16.50;;
55308;SDS011;44028;51.358;19.876;2022-12-18T05:24:11;52.00;;;17.55;;
55308;SDS011;44028;51.358;19.876;2022-12-18T05:26:37;44.22;;;16.00;;
55308;SDS011;44028;51.358;19.876;2022-12-18T05:29:04;45.50;;;15.90;;
55308;SDS011;44028;51.358;19.876;2022-12-18T05:31:31;48.70;;;16.45;;
55308;SDS011;44028;51.358;19.876;2022-12-18T05:34:05;44.97;;;17.07;;
55308;SDS011;44028;51.358;19.876;2022-12-18T05:36:32;48.53;;;17.02;;
55308;SDS011;44028;51.358;19.876;2022-12-18T05:38:58;44.53;;;15.68;;
55308;SDS011;44028;51.358;19.876;2022-12-18T05:41:26;46.42;;;16.25;;
55308;SDS011;44028;51.358;19.876;2022-12-18T05:43:53;48.67;;;16.85;;
55308;SDS011;44028;51.358;19.876;2022-12-18T05:46:20;49.60;;;17.15;;
55308;SDS011;44028;51.358;19.876;2022-12-18T05:48:47;47.97;;;15.82;;
55308;SDS011;44028;51.358;19.876;2022-12-18T05:51:15;44.55;;;16.77;;
55308;SDS011;44028;51.358;19.876;2022-12-18T05:53:42;51.10;;;17.40;;
55308;SDS011;44028;51.358;19.876;2022-12-18T05:56:11;52.72;;;18.60;;
55308;SDS011;44028;51.358;19.876;2022-12-18T05:58:38;47.38;;;16.83;;
55308;SDS011;44028;51.358;19.876;2022-12-18T06:01:09;50.03;;;17.20;;
55308;SDS011;44028;51.358;19.876;2022-12-18T06:03:36;42.15;;;15.93;;
55308;SDS011;44028;51.358;19.876;2022-12-18T06:06:03;49.67;;;15.70;;
55308;SDS011;44028;51.358;19.876;2022-12-18T06:08:30;44.95;;;17.13;;
55308;SDS011;44028;51.358;19.876;2022-12-18T06:10:57;40.33;;;14.80;;
55308;SDS011;44028;51.358;19.876;2022-12-18T06:13:23;45.70;;;16.08;;
55308;SDS011;44028;51.358;19.876;2022-12-18T06:15:50;49.03;;;16.52;;
55308;SDS011;44028;51.358;19.876;2022-12-18T06:18:17;52.78;;;16.98;;
55308;SDS011;44028;51.358;19.876;2022-12-18T06:20:43;55.35;;;16.88;;
55308;SDS011;44028;51.358;19.876;2022-12-18T06:23:11;50.35;;;18.55;;
55308;SDS011;44028;51.358;19.876;2022-12-18T06:25:38;44.72;;;15.57;;
55308;SDS011;44028;51.358;19.876;2022-12-18T06:28:05;51.42;;;17.10;;
55308;SDS011;44028;51.358;19.876;2022-12-18T06:30:32;44.78;;;15.48;;
55308;SDS011;44028;51.358;19.876;2022-12-18T06:32:59;39.88;;;13.38;;
55308;SDS011;44028;51.358;19.876;2022-12-18T06:35:25;49.83;;;17.13;;
55308;SDS011;44028;51.358;19.876;2022-12-18T06:37:52;50.47;;;17.48;;
55308;SDS011;44028;51.358;19.876;2022-12-18T06:40:19;50.92;;;17.05;;
55308;SDS011;44028;51.358;19.876;2022-12-18T06:42:46;52.30;;;16.13;;
55308;SDS011;44028;51.358;19.876;2022-12-18T06:45:15;55.00;;;18.15;;
55308;SDS011;44028;51.358;19.876;2022-12-18T06:47:42;54.60;;;19.83;;
55308;SDS011;44028;51.358;19.876;2022-12-18T06:50:09;53.00;;;19.02;;
55308;SDS011;44028;51.358;19.876;2022-12-18T06:52:36;62.72;;;21.00;;
55308;SDS011;44028;51.358;19.876;2022-12-18T06:55:03;51.67;;;18.05;;
55308;SDS011;44028;51.358;19.876;2022-12-18T06:57:30;55.72;;;19.92;;
55308;SDS011;44028;51.358;19.876;2022-12-18T06:59:56;49.25;;;18.40;;
55308;SDS011;44028;51.358;19.876;2022-12-18T07:02:23;54.10;;;18.48;;
55308;SDS011;44028;51.358;19.876;2022-12-18T07:04:50;55.45;;;17.83;;
55308;SDS011;44028;51.358;19.876;2022-12-18T07:07:17;52.58;;;16.90;;
55308;SDS011;44028;51.358;19.876;2022-12-18T07:09:44;68.07;;;22.00;;
55308;SDS011;44028;51.358;19.876;2022-12-18T07:12:11;62.38;;;20.08;;
55308;SDS011;44028;51.358;19.876;2022-12-18T07:14:38;50.88;;;17.58;;
55308;SDS011;44028;51.358;19.876;2022-12-18T07:17:05;50.10;;;17.20;;
55308;SDS011;44028;51.358;19.876;2022-12-18T07:19:32;54.85;;;17.30;;
55308;SDS011;44028;51.358;19.876;2022-12-18T07:21:58;52.53;;;17.63;;
55308;SDS011;44028;51.358;19.876;2022-12-18T07:24:25;61.58;;;21.85;;
55308;SDS011;44028;51.358;19.876;2022-12-18T07:26:52;66.50;;;22.25;;
55308;SDS011;44028;51.358;19.876;2022-12-18T07:29:19;58.42;;;19.60;;
55308;SDS011;44028;51.358;19.876;2022-12-18T07:31:45;52.03;;;17.65;;
55308;SDS011;44028;51.358;19.876;2022-12-18T07:34:13;93.40;;;31.35;;
55308;SDS011;44028;51.358;19.876;2022-12-18T07:36:40;76.18;;;29.85;;
55308;SDS011;44028;51.358;19.876;2022-12-18T07:39:07;58.88;;;21.60;;
55308;SDS011;44028;51.358;19.876;2022-12-18T07:41:34;180.30;;;70.50;;
55308;SDS011;44028;51.358;19.876;2022-12-18T07:44:01;64.45;;;23.65;;
55308;SDS011;44028;51.358;19.876;2022-12-18T07:46:27;77.28;;;30.63;;
55308;SDS011;44028;51.358;19.876;2022-12-18T07:48:54;106.45;;;47.33;;
55308;SDS011;44028;51.358;19.876;2022-12-18T07:51:21;144.93;;;61.92;;
55308;SDS011;44028;51.358;19.876;2022-12-18T07:53:47;103.32;;;43.45;;
55308;SDS011;44028;51.358;19.876;2022-12-18T07:56:17;91.28;;;37.45;;
55308;SDS011;44028;51.358;19.876;2022-12-18T07:58:53;75.00;;;29.95;;
55308;SDS011;44028;51.358;19.876;2022-12-18T08:01:20;87.15;;;30.80;;
55308;SDS011;44028;51.358;19.876;2022-12-18T08:03:50;74.35;;;29.80;;
55308;SDS011;44028;51.358;19.876;2022-12-18T08:06:26;82.88;;;37.38;;
55308;SDS011;44028;51.358;19.876;2022-12-18T08:08:53;65.95;;;28.00;;
55308;SDS011;44028;51.358;19.876;2022-12-18T08:11:28;68.22;;;26.35;;
55308;SDS011;44028;51.358;19.876;2022-12-18T08:13:55;73.13;;;28.60;;
55308;SDS011;44028;51.358;19.876;2022-12-18T08:16:22;65.22;;;25.35;;
55308;SDS011;44028;51.358;19.876;2022-12-18T08:18:52;77.03;;;29.33;;
55308;SDS011;44028;51.358;19.876;2022-12-18T08:21:29;82.75;;;35.08;;
55308;SDS011;44028;51.358;19.876;2022-12-18T08:23:56;66.70;;;27.33;;
55308;SDS011;44028;51.358;19.876;2022-12-18T08:26:24;82.32;;;31.02;;
55308;SDS011;44028;51.358;19.876;2022-12-18T08:28:52;89.65;;;30.25;;
55308;SDS011;44028;51.358;19.876;2022-12-18T08:31:19;115.53;;;39.42;;
55308;SDS011;44028;51.358;19.876;2022-12-18T08:33:50;86.28;;;27.08;;
55308;SDS011;44028;51.358;19.876;2022-12-18T08:36:17;68.82;;;23.63;;
55308;SDS011;44028;51.358;19.876;2022-12-18T08:38:45;56.30;;;22.02;;
55308;SDS011;44028;51.358;19.876;2022-12-18T08:41:13;69.85;;;27.48;;
55308;SDS011;44028;51.358;19.876;2022-12-18T08:43:40;55.63;;;20.83;;
55308;SDS011;44028;51.358;19.876;2022-12-18T08:46:21;58.05;;;22.45;;
55308;SDS011;44028;51.358;19.876;2022-12-18T08:48:50;71.47;;;27.05;;
55308;SDS011;44028;51.358;19.876;2022-12-18T08:51:17;76.90;;;26.42;;
55308;SDS011;44028;51.358;19.876;2022-12-18T08:53:44;92.57;;;30.02;;
55308;SDS011;44028;51.358;19.876;2022-12-18T08:56:11;70.18;;;27.73;;
55308;SDS011;44028;51.358;19.876;2022-12-18T08:58:38;74.13;;;27.17;;
55308;SDS011;44028;51.358;19.876;2022-12-18T09:01:06;70.65;;;25.92;;
55308;SDS011;44028;51.358;19.876;2022-12-18T09:03:33;58.75;;;22.20;;
55308;SDS011;44028;51.358;19.876;2022-12-18T09:06:00;60.05;;;22.20;;
55308;SDS011;44028;51.358;19.876;2022-12-18T09:08:27;65.20;;;23.20;;
55308;SDS011;44028;51.358;19.876;2022-12-18T09:10:55;81.93;;;23.90;;
55308;SDS011;44028;51.358;19.876;2022-12-18T09:13:22;141.65;;;36.15;;
55308;SDS011;44028;51.358;19.876;2022-12-18T09:15:50;93.18;;;29.88;;
55308;SDS011;44028;51.358;19.876;2022-12-18T09:18:18;67.13;;;24.27;;
55308;SDS011;44028;51.358;19.876;2022-12-18T09:20:51;47.10;;;18.20;;
55308;SDS011;44028;51.358;19.876;2022-12-18T09:23:21;55.80;;;19.58;;
55308;SDS011;44028;51.358;19.876;2022-12-18T09:25:57;59.67;;;20.85;;
55308;SDS011;44028;51.358;19.876;2022-12-18T09:28:27;57.28;;;20.00;;
55308;SDS011;44028;51.358;19.876;2022-12-18T09:31:18;62.13;;;23.10;;
55308;SDS011;44028;51.358;19.876;2022-12-18T09:33:54;51.80;;;20.23;;
55308;SDS011;44028;51.358;19.876;2022-12-18T09:36:21;44.13;;;16.88;;
55308;SDS011;44028;51.358;19.876;2022-12-18T09:38:48;47.25;;;18.48;;
55308;SDS011;44028;51.358;19.876;2022-12-18T09:43:45;52.63;;;19.80;;
55308;SDS011;44028;51.358;19.876;2022-12-18T09:49:12;55.78;;;20.92;;
55308;SDS011;44028;51.358;19.876;2022-12-18T09:51:42;61.47;;;21.17;;
55308;SDS011;44028;51.358;19.876;2022-12-18T09:54:15;62.33;;;25.20;;
55308;SDS011;44028;51.358;19.876;2022-12-18T09:56:42;56.95;;;20.73;;
55308;SDS011;44028;51.358;19.876;2022-12-18T09:59:56;69.03;;;24.80;;
55308;SDS011;44028;51.358;19.876;2022-12-18T10:01:57;64.75;;;24.00;;
55308;SDS011;44028;51.358;19.876;2022-12-18T10:04:27;60.17;;;22.15;;
55308;SDS011;44028;51.358;19.876;2022-12-18T10:07:12;69.55;;;24.60;;
55308;SDS011;44028;51.358;19.876;2022-12-18T10:09:54;69.47;;;24.08;;
55308;SDS011;44028;51.358;19.876;2022-12-18T10:20:32;53.50;;;21.13;;
55308;SDS011;44028;51.358;19.876;2022-12-18T10:23:14;45.33;;;17.25;;
55308;SDS011;44028;51.358;19.876;2022-12-18T10:28:37;66.97;;;27.00;;
55308;SDS011;44028;51.358;19.876;2022-12-18T10:31:05;63.15;;;26.73;;
55308;SDS011;44028;51.358;19.876;2022-12-18T10:33:35;75.97;;;25.02;;
55308;SDS011;44028;51.358;19.876;2022-12-18T10:47:25;71.93;;;23.10;;
55308;SDS011;44028;51.358;19.876;2022-12-18T10:49:58;64.57;;;20.35;;
55308;SDS011;44028;51.358;19.876;2022-12-18T10:52:25;69.15;;;21.55;;
55308;SDS011;44028;51.358;19.876;2022-12-18T10:54:53;55.42;;;18.02;;
55308;SDS011;44028;51.358;19.876;2022-12-18T11:02:51;157.13;;;59.55;;
55308;SDS011;44028;51.358;19.876;2022-12-18T11:05:29;78.30;;;27.63;;
55308;SDS011;44028;51.358;19.876;2022-12-18T11:08:20;164.45;;;56.15;;
55308;SDS011;44028;51.358;19.876;2022-12-18T11:10:53;99.32;;;37.38;;
55308;SDS011;44028;51.358;19.876;2022-12-18T11:13:20;56.00;;;23.52;;
55308;SDS011;44028;51.358;19.876;2022-12-18T11:15:51;92.72;;;36.85;;
55308;SDS011;44028;51.358;19.876;2022-12-18T11:18:19;99.00;;;35.10;;
55308;SDS011;44028;51.358;19.876;2022-12-18T11:20:52;124.35;;;43.28;;
55308;SDS011;44028;51.358;19.876;2022-12-18T11:23:24;90.53;;;34.05;;
55308;SDS011;44028;51.358;19.876;2022-12-18T11:26:10;94.70;;;34.95;;
55308;SDS011;44028;51.358;19.876;2022-12-18T11:28:37;217.15;;;60.17;;
55308;SDS011;44028;51.358;19.876;2022-12-18T11:31:09;65.75;;;23.65;;
55308;SDS011;44028;51.358;19.876;2022-12-18T11:33:42;58.33;;;22.55;;
55308;SDS011;44028;51.358;19.876;2022-12-18T11:36:36;67.78;;;23.75;;
55308;SDS011;44028;51.358;19.876;2022-12-18T11:45:02;84.57;;;27.27;;
55308;SDS011;44028;51.358;19.876;2022-12-18T11:53:03;55.28;;;23.83;;
55308;SDS011;44028;51.358;19.876;2022-12-18T11:55:42;69.18;;;27.33;;
55308;SDS011;44028;51.358;19.876;2022-12-18T12:08:55;50.25;;;19.17;;
55308;SDS011;44028;51.358;19.876;2022-12-18T12:11:31;57.58;;;26.60;;
55308;SDS011;44028;51.358;19.876;2022-12-18T12:16:48;86.75;;;37.28;;
55308;SDS011;44028;51.358;19.876;2022-12-18T12:22:26;152.82;;;44.47;;
55308;SDS011;44028;51.358;19.876;2022-12-18T12:34:01;129.50;;;45.00;;
55308;SDS011;44028;51.358;19.876;2022-12-18T12:39:01;57.17;;;22.88;;
55308;SDS011;44028;51.358;19.876;2022-12-18T12:41:31;59.63;;;19.67;;
55308;SDS011;44028;51.358;19.876;2022-12-18T12:44:22;69.93;;;26.58;;
55308;SDS011;44028;51.358;19.876;2022-12-18T12:46:50;92.85;;;35.65;;
55308;SDS011;44028;51.358;19.876;2022-12-18T12:49:19;71.63;;;28.92;;
55308;SDS011;44028;51.358;19.876;2022-12-18T12:52:32;52.33;;;19.92;;
55308;SDS011;44028;51.358;19.876;2022-12-18T12:54:38;59.42;;;21.75;;
55308;SDS011;44028;51.358;19.876;2022-12-18T12:57:08;76.95;;;28.67;;
55308;SDS011;44028;51.358;19.876;2022-12-18T13:18:03;78.55;;;34.72;;
55308;SDS011;44028;51.358;19.876;2022-12-18T13:20:34;79.38;;;30.13;;
55308;SDS011;44028;51.358;19.876;2022-12-18T13:23:19;57.33;;;22.42;;
55308;SDS011;44028;51.358;19.876;2022-12-18T13:25:47;43.80;;;17.02;;
55308;SDS011;44028;51.358;19.876;2022-12-18T13:30:55;74.20;;;25.00;;
55308;SDS011;44028;51.358;19.876;2022-12-18T13:38:25;83.03;;;27.08;;
55308;SDS011;44028;51.358;19.876;2022-12-18T13:40:59;74.68;;;28.35;;
55308;SDS011;44028;51.358;19.876;2022-12-18T13:43:31;65.95;;;25.25;;
55308;SDS011;44028;51.358;19.876;2022-12-18T13:51:22;65.10;;;26.05;;
55308;SDS011;44028;51.358;19.876;2022-12-18T13:53:51;68.03;;;25.90;;
55308;SDS011;44028;51.358;19.876;2022-12-18T13:56:21;67.18;;;25.52;;
55308;SDS011;44028;51.358;19.876;2022-12-18T14:01:30;77.07;;;27.20;;
55308;SDS011;44028;51.358;19.876;2022-12-18T14:04:16;63.47;;;25.20;;
55308;SDS011;44028;51.358;19.876;2022-12-18T14:06:45;61.33;;;25.25;;
55308;SDS011;44028;51.358;19.876;2022-12-18T14:09:15;58.35;;;23.50;;
55308;SDS011;44028;51.358;19.876;2022-12-18T14:11:48;49.03;;;18.40;;
55308;SDS011;44028;51.358;19.876;2022-12-18T14:14:15;46.75;;;17.92;;
55308;SDS011;44028;51.358;19.876;2022-12-18T14:16:42;69.10;;;24.38;;
55308;SDS011;44028;51.358;19.876;2022-12-18T14:19:17;61.67;;;23.83;;
55308;SDS011;44028;51.358;19.876;2022-12-18T14:21:47;117.93;;;33.22;;
55308;SDS011;44028;51.358;19.876;2022-12-18T14:24:15;105.32;;;31.67;;
55308;SDS011;44028;51.358;19.876;2022-12-18T14:26:45;88.05;;;29.67;;
55308;SDS011;44028;51.358;19.876;2022-12-18T14:31:45;99.10;;;33.03;;
55308;SDS011;44028;51.358;19.876;2022-12-18T14:34:16;69.45;;;25.42;;
55308;SDS011;44028;51.358;19.876;2022-12-18T14:39:26;67.18;;;25.90;;
55308;SDS011;44028;51.358;19.876;2022-12-18T14:41:54;80.95;;;29.48;;
55308;SDS011;44028;51.358;19.876;2022-12-18T14:44:21;68.03;;;25.45;;
55308;SDS011;44028;51.358;19.876;2022-12-18T14:46:48;72.80;;;28.85;;
55308;SDS011;44028;51.358;19.876;2022-12-18T14:49:18;125.82;;;40.55;;
55308;SDS011;44028;51.358;19.876;2022-12-18T14:51:54;93.35;;;35.92;;
55308;SDS011;44028;51.358;19.876;2022-12-18T14:54:22;97.95;;;34.83;;
55308;SDS011;44028;51.358;19.876;2022-12-18T14:56:51;65.72;;;25.02;;
55308;SDS011;44028;51.358;19.876;2022-12-18T14:59:27;68.22;;;27.73;;
55308;SDS011;44028;51.358;19.876;2022-12-18T15:04:32;80.88;;;30.20;;
55308;SDS011;44028;51.358;19.876;2022-12-18T15:10:00;60.95;;;21.55;;
55308;SDS011;44028;51.358;19.876;2022-12-18T15:12:35;61.70;;;22.00;;
55308;SDS011;44028;51.358;19.876;2022-12-18T15:17:48;97.07;;;32.55;;
55308;SDS011;44028;51.358;19.876;2022-12-18T15:20:18;57.03;;;21.30;;
55308;SDS011;44028;51.358;19.876;2022-12-18T15:22:45;68.07;;;23.25;;
55308;SDS011;44028;51.358;19.876;2022-12-18T15:25:47;117.00;;;35.97;;
55308;SDS011;44028;51.358;19.876;2022-12-18T15:28:17;59.45;;;23.20;;
55308;SDS011;44028;51.358;19.876;2022-12-18T15:33:29;64.45;;;22.88;;
55308;SDS011;44028;51.358;19.876;2022-12-18T15:35:59;70.05;;;22.23;;
55308;SDS011;44028;51.358;19.876;2022-12-18T15:38:26;55.05;;;18.65;;
55308;SDS011;44028;51.358;19.876;2022-12-18T15:40:53;61.13;;;20.15;;
55308;SDS011;44028;51.358;19.876;2022-12-18T15:43:24;100.43;;;34.72;;
55308;SDS011;44028;51.358;19.876;2022-12-18T15:46:03;66.70;;;23.70;;
55308;SDS011;44028;51.358;19.876;2022-12-18T15:48:34;70.35;;;25.17;;
55308;SDS011;44028;51.358;19.876;2022-12-18T15:51:02;53.88;;;19.55;;
55308;SDS011;44028;51.358;19.876;2022-12-18T15:53:30;69.32;;;25.52;;
55308;SDS011;44028;51.358;19.876;2022-12-18T15:55:57;90.22;;;32.03;;
55308;SDS011;44028;51.358;19.876;2022-12-18T15:58:38;72.65;;;27.50;;
55308;SDS011;44028;51.358;19.876;2022-12-18T16:01:04;102.43;;;40.55;;
55308;SDS011;44028;51.358;19.876;2022-12-18T16:03:31;63.05;;;24.60;;
55308;SDS011;44028;51.358;19.876;2022-12-18T16:05:58;54.22;;;21.13;;
55308;SDS011;44028;51.358;19.876;2022-12-18T16:08:29;72.07;;;23.73;;
55308;SDS011;44028;51.358;19.876;2022-12-18T16:10:56;92.30;;;30.27;;
55308;SDS011;44028;51.358;19.876;2022-12-18T16:13:24;69.35;;;26.50;;
55308;SDS011;44028;51.358;19.876;2022-12-18T16:15:50;56.70;;;19.35;;
55308;SDS011;44028;51.358;19.876;2022-12-18T16:18:17;67.10;;;25.50;;
55308;SDS011;44028;51.358;19.876;2022-12-18T16:20:44;129.77;;;41.47;;
55308;SDS011;44028;51.358;19.876;2022-12-18T16:23:11;107.47;;;38.55;;
55308;SDS011;44028;51.358;19.876;2022-12-18T16:25:38;69.55;;;23.35;;
55308;SDS011;44028;51.358;19.876;2022-12-18T16:28:04;85.07;;;30.65;;
55308;SDS011;44028;51.358;19.876;2022-12-18T16:30:31;85.45;;;32.28;;
55308;SDS011;44028;51.358;19.876;2022-12-18T16:33:04;76.25;;;30.25;;
55308;SDS011;44028;51.358;19.876;2022-12-18T16:35:32;54.67;;;19.02;;
55308;SDS011;44028;51.358;19.876;2022-12-18T16:37:59;52.78;;;18.08;;
55308;SDS011;44028;51.358;19.876;2022-12-18T16:40:26;67.45;;;23.88;;
55308;SDS011;44028;51.358;19.876;2022-12-18T16:42:53;71.00;;;27.20;;
55308;SDS011;44028;51.358;19.876;2022-12-18T16:45:20;70.80;;;25.95;;
55308;SDS011;44028;51.358;19.876;2022-12-18T16:47:46;60.75;;;22.13;;
55308;SDS011;44028;51.358;19.876;2022-12-18T16:50:13;98.97;;;32.88;;
55308;SDS011;44028;51.358;19.876;2022-12-18T16:52:40;76.38;;;25.75;;
55308;SDS011;44028;51.358;19.876;2022-12-18T16:55:07;53.13;;;20.23;;
55308;SDS011;44028;51.358;19.876;2022-12-18T16:57:34;71.88;;;24.85;;